Terminal Aerodrome Forecast
Issued by NWS

Home | Current Version | Previous Version | Text Only | Print | Product List | Glossary On
Versions: 1 2 3 4 5 6 7 8 9 10 11 12 13 14 15 16 17 18 19 20 21 22 23 24 25 26 27 28 29 30 31 32 33 34 35 36 37 38
000
FTAK31 PANC 281133
TAFADL
TAF
PADL 281133Z 2812/2912 VRB03KT 1/2SM FG OVC003
      TEMPO 2812/2816 1/4SM FG OVC002
     FM282000 16007KT P6SM FEW005 SCT010
     FM290000 17007KT P6SM SCT200
     FM290700 33005KT P6SM SKC
      AMD LTD TO CLD VIS AND WIND TIL 281600=

USA.gov is the U.S. government's official web portal to all federal, state and local government web resources and services.